Anguilla, MS (38721)

1:59 PM CDT on August 29, 2014 (GMT -0500)
MesoWest NORTH ISSAQUENA MS US SCAN | Change Station
CLOSE
Current Station
Personal Weather Station
Location: Glen Allan, MS
Elevation: 111 ft
Nearby Weather Stations

Elev 111 ft 33.00 °N, 91.06 °W | Updated 59 minutes ago

Partly Cloudy
Partly Cloudy
88 °F
Feels Like 95 °F
N
5
Wind Variable Wind from SSW
Gusts 0.0 mph

Today
High -- | Low -- °F
--% Chance of Precip.
Yesterday
High -- | Low -- °F
Precip. -- in
6:35 AM 7:32 PM
Waxing Crescent, 16% visible
Pressure 29.96 in
Visibility 10.0 miles
Clouds Few 4600 ft
Scattered Clouds 6000 ft
Mostly Cloudy 7000 ft
Heat Index 95 °F
Dew Point 72 °F
Humidity 60%
Rainfall -999.00 in
Snow Depth Not available.
UV 6 out of 12
Pollen 9.40 out of 12
Air Quality Not available.
Flu Activity Not available.
METAR KGLH 291853Z AUTO 18007KT 10SM FEW046 SCT060 BKN070 32/22 A2994 RMK AO2 SLP144 T03220217

More Conditions Fewer Conditions

Pressure 29.96 in
Visibility 10.0 miles
Clouds Few 4600 ft
Scattered Clouds 6000 ft
Mostly Cloudy 7000 ft
Heat Index 95 °F
Dew Point 72 °F
Humidity 60%
Rainfall -999.00 in
Snow Depth Not available.
UV 6 out of 12
Pollen 9.40 out of 12
Air Quality Not available.
Flu Activity Not available.
METAR KGLH 291853Z AUTO 18007KT 10SM FEW046 SCT060 BKN070 32/22 A2994 RMK AO2 SLP144 T03220217

More Conditions Fewer Conditions

10-Day Weather Forecast

Almanac

Astronomy

Aug. 29, 2014 Rise Set
Actual Time 6:35 AM CDT 7:32 PM CDT
Civil Twilight 6:10 AM CDT 7:57 PM CDT
Nautical Twilight 5:40 AM CDT 8:27 PM CDT
Astronomical Twilight 5:09 AM CDT 8:57 PM CDT
Moon 10:11 AM CDT 9:45 PM CDT
Length of Visible Light 13h 46m
Length of Day
12h 56m
Tomorrow will be 1m 56s shorter.
Waxing Crescent, 16% of the Moon is Illuminated
Today
Waxing Crescent
Sep 2
First Quarter
Sep 8
Full
Sep 15
Last Quarter
Sep 24
New

Today's Extremes

State Highs State Lows

Community

WunderPhotos

Upload Photos

1,748,314 photos uploaded!

Nearby

Snow Depth

Station Depth Elevation
No new snow has been reported.

Earthquake Activity

City Distance Mag. Time & Date
No recent earthquake activity has been reported nearby.
Minimum magnitude displayed is 2.5.

Coastal Water Temperatures

Place Temperature
No Stations Reporting

Nearby Weather Stations